sensor_id;sensor_type;location;lat;lon;timestamp;P1;durP1;ratioP1;P2;durP2;ratioP2
15633;SDS011;14654;48.898;8.308;2023-12-28T00:01:12;5.57;;;5.00;;
15633;SDS011;14654;48.898;8.308;2023-12-28T00:03:38;4.93;;;4.33;;
15633;SDS011;14654;48.898;8.308;2023-12-28T00:06:05;5.07;;;4.57;;
15633;SDS011;14654;48.898;8.308;2023-12-28T00:08:31;7.40;;;6.60;;
15633;SDS011;14654;48.898;8.308;2023-12-28T00:10:57;7.70;;;6.80;;
15633;SDS011;14654;48.898;8.308;2023-12-28T00:13:23;6.50;;;5.90;;
15633;SDS011;14654;48.898;8.308;2023-12-28T00:15:48;6.50;;;5.90;;
15633;SDS011;14654;48.898;8.308;2023-12-28T00:18:13;6.00;;;5.40;;
15633;SDS011;14654;48.898;8.308;2023-12-28T00:20:39;5.47;;;4.93;;
15633;SDS011;14654;48.898;8.308;2023-12-28T00:23:04;7.77;;;5.27;;
15633;SDS011;14654;48.898;8.308;2023-12-28T00:25:30;7.10;;;6.00;;
15633;SDS011;14654;48.898;8.308;2023-12-28T00:27:55;6.10;;;5.50;;
15633;SDS011;14654;48.898;8.308;2023-12-28T00:30:21;7.20;;;5.73;;
15633;SDS011;14654;48.898;8.308;2023-12-28T00:32:46;6.27;;;5.67;;
15633;SDS011;14654;48.898;8.308;2023-12-28T00:35:11;6.27;;;4.83;;
15633;SDS011;14654;48.898;8.308;2023-12-28T00:37:37;5.50;;;4.90;;
15633;SDS011;14654;48.898;8.308;2023-12-28T00:40:02;5.27;;;4.77;;
15633;SDS011;14654;48.898;8.308;2023-12-28T00:42:28;4.70;;;4.30;;
15633;SDS011;14654;48.898;8.308;2023-12-28T00:44:53;4.93;;;4.53;;
15633;SDS011;14654;48.898;8.308;2023-12-28T00:47:18;4.67;;;4.27;;
15633;SDS011;14654;48.898;8.308;2023-12-28T00:49:44;5.43;;;4.23;;
15633;SDS011;14654;48.898;8.308;2023-12-28T00:52:09;4.60;;;4.20;;
15633;SDS011;14654;48.898;8.308;2023-12-28T00:54:35;4.67;;;4.17;;
15633;SDS011;14654;48.898;8.308;2023-12-28T00:57:02;4.70;;;4.10;;
15633;SDS011;14654;48.898;8.308;2023-12-28T00:59:28;4.33;;;3.90;;
15633;SDS011;14654;48.898;8.308;2023-12-28T01:01:54;4.70;;;4.30;;
15633;SDS011;14654;48.898;8.308;2023-12-28T01:04:20;5.00;;;4.50;;
15633;SDS011;14654;48.898;8.308;2023-12-28T01:06:48;5.20;;;4.70;;
15633;SDS011;14654;48.898;8.308;2023-12-28T01:09:13;5.77;;;5.27;;
15633;SDS011;14654;48.898;8.308;2023-12-28T01:11:39;5.60;;;5.10;;
15633;SDS011;14654;48.898;8.308;2023-12-28T01:14:04;5.17;;;4.67;;
15633;SDS011;14654;48.898;8.308;2023-12-28T01:16:29;5.20;;;4.70;;
15633;SDS011;14654;48.898;8.308;2023-12-28T01:18:54;5.87;;;5.23;;
15633;SDS011;14654;48.898;8.308;2023-12-28T01:21:20;5.27;;;4.60;;
15633;SDS011;14654;48.898;8.308;2023-12-28T01:23:45;5.60;;;5.10;;
15633;SDS011;14654;48.898;8.308;2023-12-28T01:26:13;4.83;;;4.43;;
15633;SDS011;14654;48.898;8.308;2023-12-28T01:28:39;4.43;;;4.03;;
15633;SDS011;14654;48.898;8.308;2023-12-28T01:31:05;4.50;;;4.10;;
15633;SDS011;14654;48.898;8.308;2023-12-28T01:33:30;6.10;;;5.30;;
15633;SDS011;14654;48.898;8.308;2023-12-28T01:35:56;5.43;;;4.93;;
15633;SDS011;14654;48.898;8.308;2023-12-28T01:38:21;4.97;;;4.57;;
15633;SDS011;14654;48.898;8.308;2023-12-28T01:40:46;5.23;;;4.73;;
15633;SDS011;14654;48.898;8.308;2023-12-28T01:43:12;4.90;;;4.40;;
15633;SDS011;14654;48.898;8.308;2023-12-28T01:45:37;4.50;;;4.10;;
15633;SDS011;14654;48.898;8.308;2023-12-28T01:48:03;4.20;;;3.80;;
15633;SDS011;14654;48.898;8.308;2023-12-28T01:50:28;5.37;;;4.47;;
15633;SDS011;14654;48.898;8.308;2023-12-28T01:52:56;4.60;;;4.13;;
15633;SDS011;14654;48.898;8.308;2023-12-28T01:55:24;5.87;;;4.87;;
15633;SDS011;14654;48.898;8.308;2023-12-28T01:57:51;5.20;;;4.80;;
15633;SDS011;14654;48.898;8.308;2023-12-28T02:00:17;6.63;;;4.63;;
15633;SDS011;14654;48.898;8.308;2023-12-28T02:02:43;4.70;;;4.30;;
15633;SDS011;14654;48.898;8.308;2023-12-28T02:05:10;5.47;;;4.60;;
15633;SDS011;14654;48.898;8.308;2023-12-28T02:07:37;4.33;;;3.93;;
15633;SDS011;14654;48.898;8.308;2023-12-28T02:10:02;4.43;;;4.03;;
15633;SDS011;14654;48.898;8.308;2023-12-28T02:12:27;4.30;;;3.90;;
15633;SDS011;14654;48.898;8.308;2023-12-28T02:14:53;4.53;;;3.60;;
15633;SDS011;14654;48.898;8.308;2023-12-28T02:19:55;4.20;;;3.80;;
15633;SDS011;14654;48.898;8.308;2023-12-28T02:22:23;3.73;;;3.40;;
15633;SDS011;14654;48.898;8.308;2023-12-28T02:27:29;3.40;;;3.10;;
15633;SDS011;14654;48.898;8.308;2023-12-28T02:29:55;3.50;;;3.00;;
15633;SDS011;14654;48.898;8.308;2023-12-28T02:32:28;3.90;;;2.90;;
15633;SDS011;14654;48.898;8.308;2023-12-28T02:35:01;3.07;;;2.50;;
15633;SDS011;14654;48.898;8.308;2023-12-28T02:37:55;2.93;;;2.60;;
15633;SDS011;14654;48.898;8.308;2023-12-28T02:40:23;2.70;;;2.50;;
15633;SDS011;14654;48.898;8.308;2023-12-28T02:42:49;2.87;;;2.50;;
15633;SDS011;14654;48.898;8.308;2023-12-28T02:45:14;2.43;;;2.20;;
15633;SDS011;14654;48.898;8.308;2023-12-28T02:47:40;2.40;;;2.20;;
15633;SDS011;14654;48.898;8.308;2023-12-28T02:50:05;3.40;;;2.37;;
15633;SDS011;14654;48.898;8.308;2023-12-28T02:52:31;2.20;;;2.00;;
15633;SDS011;14654;48.898;8.308;2023-12-28T02:54:56;2.33;;;2.13;;
15633;SDS011;14654;48.898;8.308;2023-12-28T02:57:22;2.50;;;2.30;;
15633;SDS011;14654;48.898;8.308;2023-12-28T02:59:47;2.03;;;1.80;;
15633;SDS011;14654;48.898;8.308;2023-12-28T03:02:12;1.93;;;1.83;;
15633;SDS011;14654;48.898;8.308;2023-12-28T03:04:38;2.10;;;1.90;;
15633;SDS011;14654;48.898;8.308;2023-12-28T03:07:04;2.57;;;2.20;;
15633;SDS011;14654;48.898;8.308;2023-12-28T03:09:30;2.60;;;1.87;;
15633;SDS011;14654;48.898;8.308;2023-12-28T03:11:55;1.80;;;1.70;;
15633;SDS011;14654;48.898;8.308;2023-12-28T03:14:20;2.20;;;1.87;;
15633;SDS011;14654;48.898;8.308;2023-12-28T03:16:48;2.13;;;1.50;;
15633;SDS011;14654;48.898;8.308;2023-12-28T03:19:14;3.00;;;1.90;;
15633;SDS011;14654;48.898;8.308;2023-12-28T03:21:39;3.03;;;1.67;;
15633;SDS011;14654;48.898;8.308;2023-12-28T03:24:05;2.27;;;2.07;;
15633;SDS011;14654;48.898;8.308;2023-12-28T03:26:30;4.07;;;2.00;;
15633;SDS011;14654;48.898;8.308;2023-12-28T03:28:56;2.07;;;1.90;;
15633;SDS011;14654;48.898;8.308;2023-12-28T03:31:21;1.67;;;1.57;;
15633;SDS011;14654;48.898;8.308;2023-12-28T03:33:46;1.80;;;1.50;;
15633;SDS011;14654;48.898;8.308;2023-12-28T03:36:18;2.20;;;2.00;;
15633;SDS011;14654;48.898;8.308;2023-12-28T03:38:44;1.50;;;1.37;;
15633;SDS011;14654;48.898;8.308;2023-12-28T03:41:16;2.37;;;1.80;;
15633;SDS011;14654;48.898;8.308;2023-12-28T03:43:43;1.70;;;1.60;;
15633;SDS011;14654;48.898;8.308;2023-12-28T03:46:08;2.07;;;1.67;;
15633;SDS011;14654;48.898;8.308;2023-12-28T03:48:35;2.33;;;1.73;;
15633;SDS011;14654;48.898;8.308;2023-12-28T03:51:01;1.50;;;1.40;;
15633;SDS011;14654;48.898;8.308;2023-12-28T03:53:26;2.00;;;1.80;;
15633;SDS011;14654;48.898;8.308;2023-12-28T03:55:51;1.60;;;1.50;;
15633;SDS011;14654;48.898;8.308;2023-12-28T03:58:17;1.73;;;1.63;;
15633;SDS011;14654;48.898;8.308;2023-12-28T04:00:42;1.73;;;1.63;;
15633;SDS011;14654;48.898;8.308;2023-12-28T04:03:07;1.53;;;1.40;;
15633;SDS011;14654;48.898;8.308;2023-12-28T04:05:33;1.60;;;1.37;;
15633;SDS011;14654;48.898;8.308;2023-12-28T04:07:58;1.47;;;1.20;;
15633;SDS011;14654;48.898;8.308;2023-12-28T04:10:30;1.63;;;1.53;;
15633;SDS011;14654;48.898;8.308;2023-12-28T04:12:57;1.77;;;1.60;;
15633;SDS011;14654;48.898;8.308;2023-12-28T04:15:24;1.60;;;1.50;;
15633;SDS011;14654;48.898;8.308;2023-12-28T04:17:49;1.60;;;1.50;;
15633;SDS011;14654;48.898;8.308;2023-12-28T04:20:15;1.60;;;1.40;;
15633;SDS011;14654;48.898;8.308;2023-12-28T04:22:40;2.03;;;1.60;;
15633;SDS011;14654;48.898;8.308;2023-12-28T04:25:08;1.77;;;1.60;;
15633;SDS011;14654;48.898;8.308;2023-12-28T04:27:33;1.90;;;1.57;;
15633;SDS011;14654;48.898;8.308;2023-12-28T04:29:59;1.73;;;1.50;;
15633;SDS011;14654;48.898;8.308;2023-12-28T04:32:24;1.57;;;1.33;;
15633;SDS011;14654;48.898;8.308;2023-12-28T04:34:49;1.90;;;1.60;;
15633;SDS011;14654;48.898;8.308;2023-12-28T04:37:14;1.70;;;1.60;;
15633;SDS011;14654;48.898;8.308;2023-12-28T04:39:40;1.93;;;1.73;;
15633;SDS011;14654;48.898;8.308;2023-12-28T04:42:05;1.50;;;1.40;;
15633;SDS011;14654;48.898;8.308;2023-12-28T04:44:30;1.90;;;1.50;;
15633;SDS011;14654;48.898;8.308;2023-12-28T04:46:56;1.70;;;1.60;;
15633;SDS011;14654;48.898;8.308;2023-12-28T04:49:21;1.80;;;1.70;;
15633;SDS011;14654;48.898;8.308;2023-12-28T04:51:46;1.73;;;1.37;;
15633;SDS011;14654;48.898;8.308;2023-12-28T04:54:12;1.37;;;1.20;;
15633;SDS011;14654;48.898;8.308;2023-12-28T04:56:37;1.70;;;1.47;;
15633;SDS011;14654;48.898;8.308;2023-12-28T04:59:02;1.70;;;1.60;;
15633;SDS011;14654;48.898;8.308;2023-12-28T05:01:28;1.87;;;1.70;;
15633;SDS011;14654;48.898;8.308;2023-12-28T05:03:56;1.70;;;1.57;;
15633;SDS011;14654;48.898;8.308;2023-12-28T05:06:22;1.60;;;1.43;;
15633;SDS011;14654;48.898;8.308;2023-12-28T05:08:47;2.07;;;1.80;;
15633;SDS011;14654;48.898;8.308;2023-12-28T05:11:12;2.20;;;1.67;;
15633;SDS011;14654;48.898;8.308;2023-12-28T05:13:38;1.73;;;1.50;;
15633;SDS011;14654;48.898;8.308;2023-12-28T05:16:04;2.33;;;2.03;;
15633;SDS011;14654;48.898;8.308;2023-12-28T05:18:30;2.00;;;1.80;;
15633;SDS011;14654;48.898;8.308;2023-12-28T05:20:56;1.80;;;1.70;;
15633;SDS011;14654;48.898;8.308;2023-12-28T05:23:21;1.50;;;1.40;;
15633;SDS011;14654;48.898;8.308;2023-12-28T05:25:46;1.93;;;1.50;;
15633;SDS011;14654;48.898;8.308;2023-12-28T05:28:13;1.67;;;1.50;;
15633;SDS011;14654;48.898;8.308;2023-12-28T05:30:38;2.30;;;1.60;;
15633;SDS011;14654;48.898;8.308;2023-12-28T05:33:03;2.07;;;1.87;;
15633;SDS011;14654;48.898;8.308;2023-12-28T05:35:29;2.10;;;1.70;;
15633;SDS011;14654;48.898;8.308;2023-12-28T05:37:54;1.60;;;1.50;;
15633;SDS011;14654;48.898;8.308;2023-12-28T05:40:20;2.17;;;1.63;;
15633;SDS011;14654;48.898;8.308;2023-12-28T05:42:45;1.77;;;1.67;;
15633;SDS011;14654;48.898;8.308;2023-12-28T05:45:10;1.80;;;1.57;;
15633;SDS011;14654;48.898;8.308;2023-12-28T05:47:36;2.07;;;1.83;;
15633;SDS011;14654;48.898;8.308;2023-12-28T05:50:01;1.67;;;1.57;;
15633;SDS011;14654;48.898;8.308;2023-12-28T05:52:28;1.70;;;1.50;;
15633;SDS011;14654;48.898;8.308;2023-12-28T05:54:53;1.87;;;1.53;;
15633;SDS011;14654;48.898;8.308;2023-12-28T05:57:21;2.20;;;1.70;;
15633;SDS011;14654;48.898;8.308;2023-12-28T05:59:46;4.83;;;1.97;;
15633;SDS011;14654;48.898;8.308;2023-12-28T06:02:12;3.00;;;2.10;;
15633;SDS011;14654;48.898;8.308;2023-12-28T06:04:37;3.37;;;2.20;;
15633;SDS011;14654;48.898;8.308;2023-12-28T06:07:05;3.10;;;2.03;;
15633;SDS011;14654;48.898;8.308;2023-12-28T06:09:31;4.10;;;2.27;;
15633;SDS011;14654;48.898;8.308;2023-12-28T06:11:56;2.77;;;2.00;;
15633;SDS011;14654;48.898;8.308;2023-12-28T06:14:21;2.60;;;1.90;;
15633;SDS011;14654;48.898;8.308;2023-12-28T06:16:47;2.90;;;2.10;;
15633;SDS011;14654;48.898;8.308;2023-12-28T06:19:12;2.20;;;2.00;;
15633;SDS011;14654;48.898;8.308;2023-12-28T06:21:38;2.87;;;2.17;;
15633;SDS011;14654;48.898;8.308;2023-12-28T06:24:03;1.80;;;1.53;;
15633;SDS011;14654;48.898;8.308;2023-12-28T06:26:29;2.10;;;1.87;;
15633;SDS011;14654;48.898;8.308;2023-12-28T06:28:54;1.73;;;1.63;;
15633;SDS011;14654;48.898;8.308;2023-12-28T06:31:19;1.67;;;1.50;;
15633;SDS011;14654;48.898;8.308;2023-12-28T06:33:45;1.60;;;1.50;;
15633;SDS011;14654;48.898;8.308;2023-12-28T06:36:11;2.73;;;2.00;;
15633;SDS011;14654;48.898;8.308;2023-12-28T06:38:37;1.53;;;1.43;;
15633;SDS011;14654;48.898;8.308;2023-12-28T06:41:02;1.77;;;1.43;;
15633;SDS011;14654;48.898;8.308;2023-12-28T06:43:35;1.57;;;1.47;;
15633;SDS011;14654;48.898;8.308;2023-12-28T06:46:00;3.33;;;1.70;;
15633;SDS011;14654;48.898;8.308;2023-12-28T06:48:25;1.70;;;1.40;;
15633;SDS011;14654;48.898;8.308;2023-12-28T06:50:51;1.70;;;1.60;;
15633;SDS011;14654;48.898;8.308;2023-12-28T06:53:17;2.57;;;1.67;;
15633;SDS011;14654;48.898;8.308;2023-12-28T06:55:42;1.80;;;1.30;;
15633;SDS011;14654;48.898;8.308;2023-12-28T06:58:08;1.57;;;1.47;;
15633;SDS011;14654;48.898;8.308;2023-12-28T07:00:33;1.73;;;1.63;;
15633;SDS011;14654;48.898;8.308;2023-12-28T07:02:58;1.40;;;1.30;;
15633;SDS011;14654;48.898;8.308;2023-12-28T07:05:23;1.80;;;1.60;;
15633;SDS011;14654;48.898;8.308;2023-12-28T07:07:49;2.07;;;1.63;;
15633;SDS011;14654;48.898;8.308;2023-12-28T07:10:14;1.60;;;1.50;;
15633;SDS011;14654;48.898;8.308;2023-12-28T07:12:40;2.70;;;1.50;;
15633;SDS011;14654;48.898;8.308;2023-12-28T07:15:05;1.70;;;1.60;;
15633;SDS011;14654;48.898;8.308;2023-12-28T07:17:31;2.93;;;1.53;;
15633;SDS011;14654;48.898;8.308;2023-12-28T07:19:56;1.50;;;1.40;;
15633;SDS011;14654;48.898;8.308;2023-12-28T07:22:21;1.80;;;1.70;;
15633;SDS011;14654;48.898;8.308;2023-12-28T07:24:47;2.47;;;1.73;;
15633;SDS011;14654;48.898;8.308;2023-12-28T07:27:13;1.77;;;1.60;;
15633;SDS011;14654;48.898;8.308;2023-12-28T07:29:38;2.00;;;1.80;;
15633;SDS011;14654;48.898;8.308;2023-12-28T07:32:03;1.70;;;1.50;;
15633;SDS011;14654;48.898;8.308;2023-12-28T07:34:29;2.00;;;1.80;;
15633;SDS011;14654;48.898;8.308;2023-12-28T07:36:54;3.43;;;2.83;;
15633;SDS011;14654;48.898;8.308;2023-12-28T07:39:19;5.10;;;2.90;;
15633;SDS011;14654;48.898;8.308;2023-12-28T07:41:45;7.20;;;3.43;;
15633;SDS011;14654;48.898;8.308;2023-12-28T07:44:10;4.50;;;3.30;;
15633;SDS011;14654;48.898;8.308;2023-12-28T07:46:35;4.13;;;3.27;;
15633;SDS011;14654;48.898;8.308;2023-12-28T07:49:01;3.57;;;2.50;;
15633;SDS011;14654;48.898;8.308;2023-12-28T07:51:26;2.50;;;2.30;;
15633;SDS011;14654;48.898;8.308;2023-12-28T07:53:51;3.47;;;2.77;;
15633;SDS011;14654;48.898;8.308;2023-12-28T07:56:17;2.63;;;2.43;;
15633;SDS011;14654;48.898;8.308;2023-12-28T07:58:42;3.30;;;2.50;;
15633;SDS011;14654;48.898;8.308;2023-12-28T08:01:10;2.57;;;2.23;;
15633;SDS011;14654;48.898;8.308;2023-12-28T08:03:36;3.27;;;2.93;;
15633;SDS011;14654;48.898;8.308;2023-12-28T08:06:01;2.87;;;2.57;;
15633;SDS011;14654;48.898;8.308;2023-12-28T08:08:27;2.83;;;2.10;;
15633;SDS011;14654;48.898;8.308;2023-12-28T08:10:52;3.63;;;2.17;;
15633;SDS011;14654;48.898;8.308;2023-12-28T08:13:18;2.10;;;1.90;;
15633;SDS011;14654;48.898;8.308;2023-12-28T08:15:43;3.40;;;2.50;;
15633;SDS011;14654;48.898;8.308;2023-12-28T08:18:10;2.53;;;2.30;;
15633;SDS011;14654;48.898;8.308;2023-12-28T08:20:35;2.77;;;2.07;;
15633;SDS011;14654;48.898;8.308;2023-12-28T08:23:00;3.33;;;2.27;;
15633;SDS011;14654;48.898;8.308;2023-12-28T08:25:26;2.60;;;2.40;;
15633;SDS011;14654;48.898;8.308;2023-12-28T08:27:51;2.33;;;2.03;;
15633;SDS011;14654;48.898;8.308;2023-12-28T08:30:16;2.37;;;2.17;;
15633;SDS011;14654;48.898;8.308;2023-12-28T08:32:42;2.10;;;1.90;;
15633;SDS011;14654;48.898;8.308;2023-12-28T08:35:07;2.20;;;2.00;;
15633;SDS011;14654;48.898;8.308;2023-12-28T08:37:32;2.57;;;2.20;;
15633;SDS011;14654;48.898;8.308;2023-12-28T08:39:58;2.30;;;2.10;;
15633;SDS011;14654;48.898;8.308;2023-12-28T08:42:23;2.70;;;2.30;;
15633;SDS011;14654;48.898;8.308;2023-12-28T08:44:49;3.43;;;2.33;;
15633;SDS011;14654;48.898;8.308;2023-12-28T08:47:15;4.70;;;2.40;;
15633;SDS011;14654;48.898;8.308;2023-12-28T08:49:40;2.97;;;2.53;;
15633;SDS011;14654;48.898;8.308;2023-12-28T08:52:06;2.80;;;2.37;;
15633;SDS011;14654;48.898;8.308;2023-12-28T08:54:31;2.53;;;2.00;;
15633;SDS011;14654;48.898;8.308;2023-12-28T08:56:57;2.60;;;2.23;;
15633;SDS011;14654;48.898;8.308;2023-12-28T08:59:22;3.37;;;2.20;;
15633;SDS011;14654;48.898;8.308;2023-12-28T09:01:47;2.20;;;1.77;;
15633;SDS011;14654;48.898;8.308;2023-12-28T09:04:13;3.10;;;2.57;;
15633;SDS011;14654;48.898;8.308;2023-12-28T09:06:39;2.43;;;2.23;;
15633;SDS011;14654;48.898;8.308;2023-12-28T09:09:04;3.37;;;3.07;;
15633;SDS011;14654;48.898;8.308;2023-12-28T09:11:30;3.87;;;3.27;;
15633;SDS011;14654;48.898;8.308;2023-12-28T09:13:56;3.90;;;3.40;;
15633;SDS011;14654;48.898;8.308;2023-12-28T09:16:21;3.23;;;2.93;;
15633;SDS011;14654;48.898;8.308;2023-12-28T09:18:46;3.20;;;2.90;;
15633;SDS011;14654;48.898;8.308;2023-12-28T09:21:12;3.73;;;3.07;;
15633;SDS011;14654;48.898;8.308;2023-12-28T09:23:37;2.80;;;2.60;;
15633;SDS011;14654;48.898;8.308;2023-12-28T09:26:03;3.57;;;3.03;;
15633;SDS011;14654;48.898;8.308;2023-12-28T09:28:33;3.03;;;2.73;;
15633;SDS011;14654;48.898;8.308;2023-12-28T09:30:59;3.30;;;2.93;;
15633;SDS011;14654;48.898;8.308;2023-12-28T09:33:25;4.10;;;3.50;;
15633;SDS011;14654;48.898;8.308;2023-12-28T09:35:50;3.77;;;3.47;;
15633;SDS011;14654;48.898;8.308;2023-12-28T09:38:16;3.70;;;3.40;;
15633;SDS011;14654;48.898;8.308;2023-12-28T09:40:41;3.50;;;3.20;;
15633;SDS011;14654;48.898;8.308;2023-12-28T09:45:52;4.13;;;3.27;;
15633;SDS011;14654;48.898;8.308;2023-12-28T09:48:19;3.83;;;3.53;;
15633;SDS011;14654;48.898;8.308;2023-12-28T09:53:22;5.20;;;3.40;;
15633;SDS011;14654;48.898;8.308;2023-12-28T09:55:48;3.80;;;3.10;;
15633;SDS011;14654;48.898;8.308;2023-12-28T09:58:16;3.90;;;3.13;;
15633;SDS011;14654;48.898;8.308;2023-12-28T10:00:44;4.10;;;2.80;;
15633;SDS011;14654;48.898;8.308;2023-12-28T10:03:11;3.33;;;3.03;;
15633;SDS011;14654;48.898;8.308;2023-12-28T10:05:37;3.70;;;2.90;;
15633;SDS011;14654;48.898;8.308;2023-12-28T10:08:03;3.17;;;2.87;;
15633;SDS011;14654;48.898;8.308;2023-12-28T10:10:29;3.40;;;3.10;;
15633;SDS011;14654;48.898;8.308;2023-12-28T10:12:54;3.50;;;3.00;;
15633;SDS011;14654;48.898;8.308;2023-12-28T10:15:20;4.00;;;3.07;;
15633;SDS011;14654;48.898;8.308;2023-12-28T10:17:45;3.10;;;2.80;;
15633;SDS011;14654;48.898;8.308;2023-12-28T10:20:12;3.30;;;2.90;;
15633;SDS011;14654;48.898;8.308;2023-12-28T10:22:37;4.23;;;3.20;;
15633;SDS011;14654;48.898;8.308;2023-12-28T10:25:03;3.50;;;2.97;;
15633;SDS011;14654;48.898;8.308;2023-12-28T10:27:29;4.47;;;2.60;;
15633;SDS011;14654;48.898;8.308;2023-12-28T10:29:55;3.33;;;2.77;;
15633;SDS011;14654;48.898;8.308;2023-12-28T10:32:21;3.63;;;3.13;;
15633;SDS011;14654;48.898;8.308;2023-12-28T10:34:47;3.17;;;2.87;;
15633;SDS011;14654;48.898;8.308;2023-12-28T10:37:13;3.33;;;2.90;;
15633;SDS011;14654;48.898;8.308;2023-12-28T10:39:42;3.20;;;2.90;;
15633;SDS011;14654;48.898;8.308;2023-12-28T10:42:11;3.03;;;2.73;;
15633;SDS011;14654;48.898;8.308;2023-12-28T10:44:39;2.87;;;2.50;;
15633;SDS011;14654;48.898;8.308;2023-12-28T10:47:08;3.37;;;2.90;;
15633;SDS011;14654;48.898;8.308;2023-12-28T10:49:44;3.03;;;2.67;;
15633;SDS011;14654;48.898;8.308;2023-12-28T10:52:13;3.30;;;2.97;;
15633;SDS011;14654;48.898;8.308;2023-12-28T10:54:47;2.80;;;2.30;;
15633;SDS011;14654;48.898;8.308;2023-12-28T10:57:22;2.60;;;2.40;;
15633;SDS011;14654;48.898;8.308;2023-12-28T11:02:27;2.20;;;2.00;;
15633;SDS011;14654;48.898;8.308;2023-12-28T11:04:57;2.53;;;2.33;;
15633;SDS011;14654;48.898;8.308;2023-12-28T11:07:25;2.90;;;2.33;;
15633;SDS011;14654;48.898;8.308;2023-12-28T11:09:57;2.30;;;2.10;;
15633;SDS011;14654;48.898;8.308;2023-12-28T11:12:25;2.33;;;1.83;;
15633;SDS011;14654;48.898;8.308;2023-12-28T11:14:52;2.27;;;2.07;;
15633;SDS011;14654;48.898;8.308;2023-12-28T11:17:19;1.90;;;1.70;;
15633;SDS011;14654;48.898;8.308;2023-12-28T11:19:45;2.27;;;2.03;;
15633;SDS011;14654;48.898;8.308;2023-12-28T11:22:12;1.90;;;1.80;;
15633;SDS011;14654;48.898;8.308;2023-12-28T11:24:38;2.50;;;2.00;;
15633;SDS011;14654;48.898;8.308;2023-12-28T11:27:04;2.53;;;2.30;;
15633;SDS011;14654;48.898;8.308;2023-12-28T11:29:30;2.63;;;2.30;;
15633;SDS011;14654;48.898;8.308;2023-12-28T11:31:59;2.93;;;2.47;;
15633;SDS011;14654;48.898;8.308;2023-12-28T11:34:29;3.47;;;2.37;;
15633;SDS011;14654;48.898;8.308;2023-12-28T11:36:56;3.17;;;2.30;;
15633;SDS011;14654;48.898;8.308;2023-12-28T11:39:30;2.80;;;2.37;;
15633;SDS011;14654;48.898;8.308;2023-12-28T11:42:08;3.73;;;2.57;;
15633;SDS011;14654;48.898;8.308;2023-12-28T11:44:41;2.60;;;2.40;;
15633;SDS011;14654;48.898;8.308;2023-12-28T11:47:15;3.13;;;2.63;;
15633;SDS011;14654;48.898;8.308;2023-12-28T11:49:45;3.30;;;2.70;;
15633;SDS011;14654;48.898;8.308;2023-12-28T11:52:22;3.50;;;3.13;;
15633;SDS011;14654;48.898;8.308;2023-12-28T11:54:49;4.73;;;2.60;;
15633;SDS011;14654;48.898;8.308;2023-12-28T11:57:15;2.93;;;2.63;;
15633;SDS011;14654;48.898;8.308;2023-12-28T11:59:40;3.20;;;2.90;;
15633;SDS011;14654;48.898;8.308;2023-12-28T12:02:06;3.10;;;2.70;;
15633;SDS011;14654;48.898;8.308;2023-12-28T12:04:33;3.93;;;2.63;;
15633;SDS011;14654;48.898;8.308;2023-12-28T12:07:02;4.87;;;3.17;;
15633;SDS011;14654;48.898;8.308;2023-12-28T12:09:28;3.87;;;2.83;;
15633;SDS011;14654;48.898;8.308;2023-12-28T12:11:57;3.50;;;3.20;;
15633;SDS011;14654;48.898;8.308;2023-12-28T12:14:22;3.50;;;3.20;;
15633;SDS011;14654;48.898;8.308;2023-12-28T12:16:48;3.97;;;3.53;;
15633;SDS011;14654;48.898;8.308;2023-12-28T12:19:14;3.40;;;3.10;;
15633;SDS011;14654;48.898;8.308;2023-12-28T12:21:40;3.87;;;3.37;;
15633;SDS011;14654;48.898;8.308;2023-12-28T12:24:05;4.93;;;4.17;;
15633;SDS011;14654;48.898;8.308;2023-12-28T12:26:31;4.10;;;3.70;;
15633;SDS011;14654;48.898;8.308;2023-12-28T12:28:57;4.30;;;3.83;;
15633;SDS011;14654;48.898;8.308;2023-12-28T12:31:22;4.33;;;3.60;;
15633;SDS011;14654;48.898;8.308;2023-12-28T12:33:49;4.60;;;3.93;;
15633;SDS011;14654;48.898;8.308;2023-12-28T12:36:15;3.93;;;3.60;;
15633;SDS011;14654;48.898;8.308;2023-12-28T12:38:40;3.97;;;3.50;;
15633;SDS011;14654;48.898;8.308;2023-12-28T12:41:06;4.87;;;3.90;;
15633;SDS011;14654;48.898;8.308;2023-12-28T12:43:32;4.00;;;3.57;;
15633;SDS011;14654;48.898;8.308;2023-12-28T12:45:58;4.20;;;3.80;;
15633;SDS011;14654;48.898;8.308;2023-12-28T12:48:25;4.00;;;3.60;;
15633;SDS011;14654;48.898;8.308;2023-12-28T12:50:50;4.20;;;3.80;;
15633;SDS011;14654;48.898;8.308;2023-12-28T12:53:16;4.90;;;4.40;;
15633;SDS011;14654;48.898;8.308;2023-12-28T12:55:41;4.20;;;3.73;;
15633;SDS011;14654;48.898;8.308;2023-12-28T12:58:08;5.40;;;4.40;;
15633;SDS011;14654;48.898;8.308;2023-12-28T13:00:34;4.53;;;4.00;;
15633;SDS011;14654;48.898;8.308;2023-12-28T13:03:00;4.57;;;4.17;;
15633;SDS011;14654;48.898;8.308;2023-12-28T13:05:26;4.67;;;4.10;;
15633;SDS011;14654;48.898;8.308;2023-12-28T13:07:51;5.47;;;3.63;;
15633;SDS011;14654;48.898;8.308;2023-12-28T13:10:16;4.03;;;3.63;;
15633;SDS011;14654;48.898;8.308;2023-12-28T13:12:42;3.83;;;3.50;;
15633;SDS011;14654;48.898;8.308;2023-12-28T13:15:07;4.73;;;3.67;;
15633;SDS011;14654;48.898;8.308;2023-12-28T13:17:34;4.53;;;3.37;;
15633;SDS011;14654;48.898;8.308;2023-12-28T13:20:03;4.27;;;3.30;;
15633;SDS011;14654;48.898;8.308;2023-12-28T13:22:31;3.07;;;2.87;;
15633;SDS011;14654;48.898;8.308;2023-12-28T13:24:56;4.37;;;3.40;;
15633;SDS011;14654;48.898;8.308;2023-12-28T13:27:22;3.20;;;2.90;;
15633;SDS011;14654;48.898;8.308;2023-12-28T13:29:48;3.53;;;3.23;;
15633;SDS011;14654;48.898;8.308;2023-12-28T13:32:13;3.60;;;3.30;;
15633;SDS011;14654;48.898;8.308;2023-12-28T13:34:38;3.80;;;2.90;;
15633;SDS011;14654;48.898;8.308;2023-12-28T13:37:04;12.17;;;10.03;;
15633;SDS011;14654;48.898;8.308;2023-12-28T13:39:29;16.07;;;12.43;;
15633;SDS011;14654;48.898;8.308;2023-12-28T13:41:55;8.33;;;7.33;;
15633;SDS011;14654;48.898;8.308;2023-12-28T13:44:20;11.53;;;8.07;;
15633;SDS011;14654;48.898;8.308;2023-12-28T13:46:45;20.60;;;13.67;;
15633;SDS011;14654;48.898;8.308;2023-12-28T13:49:11;22.23;;;14.77;;
15633;SDS011;14654;48.898;8.308;2023-12-28T13:51:36;17.73;;;12.70;;
15633;SDS011;14654;48.898;8.308;2023-12-28T13:54:02;20.83;;;13.07;;
15633;SDS011;14654;48.898;8.308;2023-12-28T13:56:27;9.97;;;7.60;;
15633;SDS011;14654;48.898;8.308;2023-12-28T13:58:53;7.47;;;6.47;;
15633;SDS011;14654;48.898;8.308;2023-12-28T14:01:19;4.57;;;4.17;;
15633;SDS011;14654;48.898;8.308;2023-12-28T14:03:44;4.03;;;3.33;;
15633;SDS011;14654;48.898;8.308;2023-12-28T14:06:10;4.80;;;4.07;;
15633;SDS011;14654;48.898;8.308;2023-12-28T14:08:36;3.70;;;3.30;;
15633;SDS011;14654;48.898;8.308;2023-12-28T14:11:01;5.13;;;4.00;;
15633;SDS011;14654;48.898;8.308;2023-12-28T14:13:27;4.23;;;3.40;;
15633;SDS011;14654;48.898;8.308;2023-12-28T14:15:53;4.10;;;3.70;;
15633;SDS011;14654;48.898;8.308;2023-12-28T14:18:18;3.73;;;3.43;;
15633;SDS011;14654;48.898;8.308;2023-12-28T14:20:44;3.77;;;3.43;;
15633;SDS011;14654;48.898;8.308;2023-12-28T14:23:09;3.73;;;3.43;;
15633;SDS011;14654;48.898;8.308;2023-12-28T14:25:35;3.67;;;3.37;;
15633;SDS011;14654;48.898;8.308;2023-12-28T14:28:02;4.93;;;3.77;;
15633;SDS011;14654;48.898;8.308;2023-12-28T14:30:28;3.93;;;3.53;;
15633;SDS011;14654;48.898;8.308;2023-12-28T14:32:53;3.80;;;3.50;;
15633;SDS011;14654;48.898;8.308;2023-12-28T14:35:19;3.70;;;3.40;;
15633;SDS011;14654;48.898;8.308;2023-12-28T14:37:45;3.90;;;3.60;;
15633;SDS011;14654;48.898;8.308;2023-12-28T14:40:11;4.20;;;3.83;;
15633;SDS011;14654;48.898;8.308;2023-12-28T14:42:39;4.67;;;4.37;;
15633;SDS011;14654;48.898;8.308;2023-12-28T14:45:05;4.33;;;3.90;;
15633;SDS011;14654;48.898;8.308;2023-12-28T14:47:31;3.37;;;3.07;;
15633;SDS011;14654;48.898;8.308;2023-12-28T14:49:57;4.47;;;3.60;;
15633;SDS011;14654;48.898;8.308;2023-12-28T14:52:22;3.83;;;3.53;;
15633;SDS011;14654;48.898;8.308;2023-12-28T14:54:48;4.10;;;3.70;;